sensor_id;sensor_type;location;lat;lon;timestamp;temperature;humidity
19847;DHT22;10084;50.518;8.588;2022-10-26T00:00:45;12.80;71.00
19847;DHT22;10084;50.518;8.588;2022-10-26T00:03:11;12.80;71.10
19847;DHT22;10084;50.518;8.588;2022-10-26T00:05:37;12.80;71.10
19847;DHT22;10084;50.518;8.588;2022-10-26T00:08:04;12.80;71.20
19847;DHT22;10084;50.518;8.588;2022-10-26T00:10:33;12.70;71.20
19847;DHT22;10084;50.518;8.588;2022-10-26T00:12:59;12.70;71.30
19847;DHT22;10084;50.518;8.588;2022-10-26T00:15:25;12.80;71.40
19847;DHT22;10084;50.518;8.588;2022-10-26T00:17:50;12.80;71.40
19847;DHT22;10084;50.518;8.588;2022-10-26T00:20:16;12.80;71.30
19847;DHT22;10084;50.518;8.588;2022-10-26T00:22:42;12.80;71.40
19847;DHT22;10084;50.518;8.588;2022-10-26T00:25:08;12.80;71.40
19847;DHT22;10084;50.518;8.588;2022-10-26T00:27:33;12.80;71.50
19847;DHT22;10084;50.518;8.588;2022-10-26T00:30:00;12.80;71.50
19847;DHT22;10084;50.518;8.588;2022-10-26T00:32:26;12.80;71.50
19847;DHT22;10084;50.518;8.588;2022-10-26T00:34:52;12.80;71.40
19847;DHT22;10084;50.518;8.588;2022-10-26T00:37:18;12.90;71.50
19847;DHT22;10084;50.518;8.588;2022-10-26T00:39:43;12.90;71.40
19847;DHT22;10084;50.518;8.588;2022-10-26T00:42:16;12.90;71.40
19847;DHT22;10084;50.518;8.588;2022-10-26T00:47:13;12.90;71.50
19847;DHT22;10084;50.518;8.588;2022-10-26T00:49:43;12.90;71.60
19847;DHT22;10084;50.518;8.588;2022-10-26T00:52:12;12.90;71.70
19847;DHT22;10084;50.518;8.588;2022-10-26T00:54:38;13.00;71.70
19847;DHT22;10084;50.518;8.588;2022-10-26T00:57:04;13.00;71.80
19847;DHT22;10084;50.518;8.588;2022-10-26T00:59:30;13.00;71.80
19847;DHT22;10084;50.518;8.588;2022-10-26T01:01:57;13.10;71.90
19847;DHT22;10084;50.518;8.588;2022-10-26T01:04:22;13.10;71.70
19847;DHT22;10084;50.518;8.588;2022-10-26T01:06:49;13.10;71.70
19847;DHT22;10084;50.518;8.588;2022-10-26T01:09:17;13.10;71.70
19847;DHT22;10084;50.518;8.588;2022-10-26T01:11:43;13.10;71.80
19847;DHT22;10084;50.518;8.588;2022-10-26T01:14:11;13.10;71.80
19847;DHT22;10084;50.518;8.588;2022-10-26T01:22:50;13.20;71.90
19847;DHT22;10084;50.518;8.588;2022-10-26T01:31:41;13.30;71.90
19847;DHT22;10084;50.518;8.588;2022-10-26T01:34:23;13.30;72.00
19847;DHT22;10084;50.518;8.588;2022-10-26T01:36:56;13.30;72.10
19847;DHT22;10084;50.518;8.588;2022-10-26T01:39:51;13.30;72.10
19847;DHT22;10084;50.518;8.588;2022-10-26T01:42:20;13.30;72.20
19847;DHT22;10084;50.518;8.588;2022-10-26T01:45:05;13.30;72.20
19847;DHT22;10084;50.518;8.588;2022-10-26T01:47:33;13.30;72.20
19847;DHT22;10084;50.518;8.588;2022-10-26T01:50:02;13.30;72.20
19847;DHT22;10084;50.518;8.588;2022-10-26T01:52:28;13.30;72.20
19847;DHT22;10084;50.518;8.588;2022-10-26T01:55:34;13.40;72.40
19847;DHT22;10084;50.518;8.588;2022-10-26T01:57:53;13.40;72.40
19847;DHT22;10084;50.518;8.588;2022-10-26T02:00:28;13.40;72.40
19847;DHT22;10084;50.518;8.588;2022-10-26T02:03:19;13.40;72.40
19847;DHT22;10084;50.518;8.588;2022-10-26T02:06:00;13.40;72.50
19847;DHT22;10084;50.518;8.588;2022-10-26T02:08:54;13.50;72.60
19847;DHT22;10084;50.518;8.588;2022-10-26T02:11:37;13.40;72.60
19847;DHT22;10084;50.518;8.588;2022-10-26T02:14:21;13.50;72.60
19847;DHT22;10084;50.518;8.588;2022-10-26T02:16:54;13.50;72.60
19847;DHT22;10084;50.518;8.588;2022-10-26T02:19:31;13.50;72.60
19847;DHT22;10084;50.518;8.588;2022-10-26T02:22:04;13.50;73.30
19847;DHT22;10084;50.518;8.588;2022-10-26T02:24:32;13.50;72.70
19847;DHT22;10084;50.518;8.588;2022-10-26T02:27:00;13.50;72.70
19847;DHT22;10084;50.518;8.588;2022-10-26T02:29:29;13.50;72.70
19847;DHT22;10084;50.518;8.588;2022-10-26T02:31:57;13.50;72.70
19847;DHT22;10084;50.518;8.588;2022-10-26T02:34:25;13.50;72.80
19847;DHT22;10084;50.518;8.588;2022-10-26T02:36:55;13.50;72.80
19847;DHT22;10084;50.518;8.588;2022-10-26T02:39:22;13.50;72.80
19847;DHT22;10084;50.518;8.588;2022-10-26T02:41:50;13.50;72.90
19847;DHT22;10084;50.518;8.588;2022-10-26T02:44:24;13.50;73.00
19847;DHT22;10084;50.518;8.588;2022-10-26T02:46:51;13.50;72.90
19847;DHT22;10084;50.518;8.588;2022-10-26T02:49:18;13.50;72.90
19847;DHT22;10084;50.518;8.588;2022-10-26T02:51:59;13.40;72.90
19847;DHT22;10084;50.518;8.588;2022-10-26T02:57:28;13.40;73.00
19847;DHT22;10084;50.518;8.588;2022-10-26T02:59:56;13.40;73.00
19847;DHT22;10084;50.518;8.588;2022-10-26T03:02:22;13.40;73.80
19847;DHT22;10084;50.518;8.588;2022-10-26T03:04:49;13.40;73.10
19847;DHT22;10084;50.518;8.588;2022-10-26T03:07:25;13.40;73.10
19847;DHT22;10084;50.518;8.588;2022-10-26T03:09:50;13.40;73.20
19847;DHT22;10084;50.518;8.588;2022-10-26T03:12:16;13.40;73.10
19847;DHT22;10084;50.518;8.588;2022-10-26T03:14:42;13.40;73.20
19847;DHT22;10084;50.518;8.588;2022-10-26T03:17:08;13.40;73.40
19847;DHT22;10084;50.518;8.588;2022-10-26T03:19:34;13.50;73.40
19847;DHT22;10084;50.518;8.588;2022-10-26T03:21:59;13.50;73.50
19847;DHT22;10084;50.518;8.588;2022-10-26T03:24:25;13.50;73.40
19847;DHT22;10084;50.518;8.588;2022-10-26T03:26:50;13.50;73.50
19847;DHT22;10084;50.518;8.588;2022-10-26T03:29:16;13.50;73.50
19847;DHT22;10084;50.518;8.588;2022-10-26T03:31:42;13.50;73.50
19847;DHT22;10084;50.518;8.588;2022-10-26T03:34:07;13.50;73.50
19847;DHT22;10084;50.518;8.588;2022-10-26T03:36:33;13.50;73.60
19847;DHT22;10084;50.518;8.588;2022-10-26T03:38:59;13.60;73.60
19847;DHT22;10084;50.518;8.588;2022-10-26T03:41:24;13.50;73.60
19847;DHT22;10084;50.518;8.588;2022-10-26T03:43:50;13.50;73.70
19847;DHT22;10084;50.518;8.588;2022-10-26T03:46:16;13.50;73.70
19847;DHT22;10084;50.518;8.588;2022-10-26T03:48:41;13.50;73.70
19847;DHT22;10084;50.518;8.588;2022-10-26T03:51:07;13.50;73.80
19847;DHT22;10084;50.518;8.588;2022-10-26T03:53:33;13.50;73.80
19847;DHT22;10084;50.518;8.588;2022-10-26T03:55:58;13.50;73.90
19847;DHT22;10084;50.518;8.588;2022-10-26T03:58:24;13.60;74.00
19847;DHT22;10084;50.518;8.588;2022-10-26T04:00:50;13.60;74.00
19847;DHT22;10084;50.518;8.588;2022-10-26T04:03:15;13.60;74.00
19847;DHT22;10084;50.518;8.588;2022-10-26T04:05:41;13.60;74.00
19847;DHT22;10084;50.518;8.588;2022-10-26T04:08:07;13.70;74.10
19847;DHT22;10084;50.518;8.588;2022-10-26T04:10:33;13.70;74.00
19847;DHT22;10084;50.518;8.588;2022-10-26T04:12:59;13.70;74.00
19847;DHT22;10084;50.518;8.588;2022-10-26T04:15:26;13.70;73.90
19847;DHT22;10084;50.518;8.588;2022-10-26T04:18:00;13.70;74.00
19847;DHT22;10084;50.518;8.588;2022-10-26T04:20:27;13.70;74.10
19847;DHT22;10084;50.518;8.588;2022-10-26T04:22:57;13.70;74.20
19847;DHT22;10084;50.518;8.588;2022-10-26T04:25:23;13.70;74.20
19847;DHT22;10084;50.518;8.588;2022-10-26T04:27:49;13.70;74.30
19847;DHT22;10084;50.518;8.588;2022-10-26T04:30:14;13.70;74.30
19847;DHT22;10084;50.518;8.588;2022-10-26T04:32:40;13.70;74.40
19847;DHT22;10084;50.518;8.588;2022-10-26T04:35:06;13.70;74.50
19847;DHT22;10084;50.518;8.588;2022-10-26T04:37:32;13.60;74.50
19847;DHT22;10084;50.518;8.588;2022-10-26T04:39:58;13.60;74.60
19847;DHT22;10084;50.518;8.588;2022-10-26T04:42:23;13.60;74.70
19847;DHT22;10084;50.518;8.588;2022-10-26T04:44:49;13.70;74.70
19847;DHT22;10084;50.518;8.588;2022-10-26T04:47:15;13.70;74.70
19847;DHT22;10084;50.518;8.588;2022-10-26T04:49:40;13.70;74.70
19847;DHT22;10084;50.518;8.588;2022-10-26T04:52:06;13.70;74.70
19847;DHT22;10084;50.518;8.588;2022-10-26T04:54:32;13.70;74.70
19847;DHT22;10084;50.518;8.588;2022-10-26T04:56:57;13.70;74.80
19847;DHT22;10084;50.518;8.588;2022-10-26T04:59:23;13.60;74.70
19847;DHT22;10084;50.518;8.588;2022-10-26T05:01:49;13.60;74.80
19847;DHT22;10084;50.518;8.588;2022-10-26T05:04:14;13.60;74.80
19847;DHT22;10084;50.518;8.588;2022-10-26T05:06:40;13.60;74.70
19847;DHT22;10084;50.518;8.588;2022-10-26T05:09:06;13.60;74.80
19847;DHT22;10084;50.518;8.588;2022-10-26T05:11:34;13.60;74.90
19847;DHT22;10084;50.518;8.588;2022-10-26T05:13:59;13.60;74.90
19847;DHT22;10084;50.518;8.588;2022-10-26T05:16:25;13.60;75.00
19847;DHT22;10084;50.518;8.588;2022-10-26T05:18:51;13.50;75.00
19847;DHT22;10084;50.518;8.588;2022-10-26T05:21:16;13.40;75.10
19847;DHT22;10084;50.518;8.588;2022-10-26T05:23:50;13.40;75.30
19847;DHT22;10084;50.518;8.588;2022-10-26T05:26:21;13.40;75.40
19847;DHT22;10084;50.518;8.588;2022-10-26T05:28:47;13.40;75.40
19847;DHT22;10084;50.518;8.588;2022-10-26T05:31:13;13.40;75.60
19847;DHT22;10084;50.518;8.588;2022-10-26T05:33:39;13.40;75.50
19847;DHT22;10084;50.518;8.588;2022-10-26T05:36:05;13.40;75.50
19847;DHT22;10084;50.518;8.588;2022-10-26T05:38:31;13.40;75.50
19847;DHT22;10084;50.518;8.588;2022-10-26T05:40:56;13.40;75.50
19847;DHT22;10084;50.518;8.588;2022-10-26T05:43:24;13.40;75.50
19847;DHT22;10084;50.518;8.588;2022-10-26T05:45:52;13.40;75.50
19847;DHT22;10084;50.518;8.588;2022-10-26T05:48:19;13.50;75.50
19847;DHT22;10084;50.518;8.588;2022-10-26T05:50:45;13.40;75.40
19847;DHT22;10084;50.518;8.588;2022-10-26T05:53:11;13.40;75.50
19847;DHT22;10084;50.518;8.588;2022-10-26T05:55:37;13.40;75.60
19847;DHT22;10084;50.518;8.588;2022-10-26T05:58:03;13.40;75.60
19847;DHT22;10084;50.518;8.588;2022-10-26T06:00:33;13.40;75.70
19847;DHT22;10084;50.518;8.588;2022-10-26T06:05:57;13.40;75.80
19847;DHT22;10084;50.518;8.588;2022-10-26T06:08:26;13.40;75.70
19847;DHT22;10084;50.518;8.588;2022-10-26T06:10:53;13.40;75.70
19847;DHT22;10084;50.518;8.588;2022-10-26T06:13:20;13.40;75.80
19847;DHT22;10084;50.518;8.588;2022-10-26T06:18:53;13.40;76.00
19847;DHT22;10084;50.518;8.588;2022-10-26T06:24:23;13.50;76.00
19847;DHT22;10084;50.518;8.588;2022-10-26T06:29:59;13.50;76.00
19847;DHT22;10084;50.518;8.588;2022-10-26T06:32:25;13.50;76.00
19847;DHT22;10084;50.518;8.588;2022-10-26T06:34:58;13.60;76.00
19847;DHT22;10084;50.518;8.588;2022-10-26T06:37:25;13.60;76.10
19847;DHT22;10084;50.518;8.588;2022-10-26T06:39:55;13.60;76.20
19847;DHT22;10084;50.518;8.588;2022-10-26T06:42:21;13.60;76.20
19847;DHT22;10084;50.518;8.588;2022-10-26T06:44:48;13.60;76.20
19847;DHT22;10084;50.518;8.588;2022-10-26T06:47:20;13.60;76.20
19847;DHT22;10084;50.518;8.588;2022-10-26T06:50:46;13.70;76.40
19847;DHT22;10084;50.518;8.588;2022-10-26T06:53:22;13.70;76.40
19847;DHT22;10084;50.518;8.588;2022-10-26T06:55:51;13.80;76.40
19847;DHT22;10084;50.518;8.588;2022-10-26T06:58:19;13.80;76.30
19847;DHT22;10084;50.518;8.588;2022-10-26T07:00:47;13.80;76.40
19847;DHT22;10084;50.518;8.588;2022-10-26T07:03:14;13.80;76.60
19847;DHT22;10084;50.518;8.588;2022-10-26T07:05:40;13.90;76.70
19847;DHT22;10084;50.518;8.588;2022-10-26T07:08:06;14.00;76.50
19847;DHT22;10084;50.518;8.588;2022-10-26T07:10:31;14.10;76.50
19847;DHT22;10084;50.518;8.588;2022-10-26T07:12:59;14.20;76.30
19847;DHT22;10084;50.518;8.588;2022-10-26T07:15:25;14.30;76.20
19847;DHT22;10084;50.518;8.588;2022-10-26T07:17:51;14.30;76.00
19847;DHT22;10084;50.518;8.588;2022-10-26T07:20:18;14.40;76.00
19847;DHT22;10084;50.518;8.588;2022-10-26T07:22:44;14.40;76.00
19847;DHT22;10084;50.518;8.588;2022-10-26T07:25:10;14.50;76.00
19847;DHT22;10084;50.518;8.588;2022-10-26T07:27:36;14.50;76.60
19847;DHT22;10084;50.518;8.588;2022-10-26T07:30:03;14.60;75.90
19847;DHT22;10084;50.518;8.588;2022-10-26T07:32:28;14.60;75.90
19847;DHT22;10084;50.518;8.588;2022-10-26T07:34:55;14.60;75.90
19847;DHT22;10084;50.518;8.588;2022-10-26T07:37:20;14.70;75.80
19847;DHT22;10084;50.518;8.588;2022-10-26T07:39:46;14.70;75.80
19847;DHT22;10084;50.518;8.588;2022-10-26T07:42:12;14.70;75.70
19847;DHT22;10084;50.518;8.588;2022-10-26T07:44:38;14.80;75.80
19847;DHT22;10084;50.518;8.588;2022-10-26T07:47:04;14.80;75.70
19847;DHT22;10084;50.518;8.588;2022-10-26T07:49:30;14.90;75.80
19847;DHT22;10084;50.518;8.588;2022-10-26T07:51:55;14.90;75.80
19847;DHT22;10084;50.518;8.588;2022-10-26T07:54:21;15.00;75.80
19847;DHT22;10084;50.518;8.588;2022-10-26T07:56:50;15.00;75.80
19847;DHT22;10084;50.518;8.588;2022-10-26T07:59:15;15.10;75.90
19847;DHT22;10084;50.518;8.588;2022-10-26T08:01:44;15.10;75.90
19847;DHT22;10084;50.518;8.588;2022-10-26T08:04:10;15.20;76.00
19847;DHT22;10084;50.518;8.588;2022-10-26T08:06:36;15.20;76.00
19847;DHT22;10084;50.518;8.588;2022-10-26T08:09:02;15.30;76.00
19847;DHT22;10084;50.518;8.588;2022-10-26T08:11:27;15.40;75.90
19847;DHT22;10084;50.518;8.588;2022-10-26T08:13:54;15.40;75.80
19847;DHT22;10084;50.518;8.588;2022-10-26T08:16:20;15.40;75.70
19847;DHT22;10084;50.518;8.588;2022-10-26T08:18:47;15.40;75.90
19847;DHT22;10084;50.518;8.588;2022-10-26T08:21:13;15.50;76.10
19847;DHT22;10084;50.518;8.588;2022-10-26T08:23:40;15.70;76.30
19847;DHT22;10084;50.518;8.588;2022-10-26T08:26:06;15.80;76.10
19847;DHT22;10084;50.518;8.588;2022-10-26T08:28:32;16.00;76.00
19847;DHT22;10084;50.518;8.588;2022-10-26T08:30:58;16.10;76.00
19847;DHT22;10084;50.518;8.588;2022-10-26T08:33:24;16.10;75.90
19847;DHT22;10084;50.518;8.588;2022-10-26T08:36:01;16.20;75.80
19847;DHT22;10084;50.518;8.588;2022-10-26T08:38:27;16.20;75.90
19847;DHT22;10084;50.518;8.588;2022-10-26T08:40:53;16.30;76.30
19847;DHT22;10084;50.518;8.588;2022-10-26T08:43:27;16.60;76.30
19847;DHT22;10084;50.518;8.588;2022-10-26T08:46:01;16.70;75.90
19847;DHT22;10084;50.518;8.588;2022-10-26T08:48:42;16.90;75.80
19847;DHT22;10084;50.518;8.588;2022-10-26T08:51:17;17.00;75.90
19847;DHT22;10084;50.518;8.588;2022-10-26T08:54:01;17.10;75.60
19847;DHT22;10084;50.518;8.588;2022-10-26T08:56:40;17.20;75.40
19847;DHT22;10084;50.518;8.588;2022-10-26T08:59:23;17.20;75.20
19847;DHT22;10084;50.518;8.588;2022-10-26T09:01:53;17.20;75.20
19847;DHT22;10084;50.518;8.588;2022-10-26T09:04:21;17.20;75.50
19847;DHT22;10084;50.518;8.588;2022-10-26T09:12:07;17.50;75.80
19847;DHT22;10084;50.518;8.588;2022-10-26T09:15:09;17.80;75.80
19847;DHT22;10084;50.518;8.588;2022-10-26T09:20:43;18.30;75.60
19847;DHT22;10084;50.518;8.588;2022-10-26T09:23:22;18.50;75.40
19847;DHT22;10084;50.518;8.588;2022-10-26T09:25:57;18.70;75.30
19847;DHT22;10084;50.518;8.588;2022-10-26T09:28:23;19.00;75.90
19847;DHT22;10084;50.518;8.588;2022-10-26T09:30:50;19.10;75.10
19847;DHT22;10084;50.518;8.588;2022-10-26T09:33:18;19.30;74.90
19847;DHT22;10084;50.518;8.588;2022-10-26T09:35:56;19.50;74.90
19847;DHT22;10084;50.518;8.588;2022-10-26T09:38:42;19.60;74.70
19847;DHT22;10084;50.518;8.588;2022-10-26T09:44:07;19.90;74.50
19847;DHT22;10084;50.518;8.588;2022-10-26T09:47:05;20.00;74.40
19847;DHT22;10084;50.518;8.588;2022-10-26T09:49:45;20.10;74.20
19847;DHT22;10084;50.518;8.588;2022-10-26T09:52:15;20.10;74.00
19847;DHT22;10084;50.518;8.588;2022-10-26T09:54:41;20.10;74.00
19847;DHT22;10084;50.518;8.588;2022-10-26T09:57:07;20.10;74.00
19847;DHT22;10084;50.518;8.588;2022-10-26T09:59:38;20.10;73.90
19847;DHT22;10084;50.518;8.588;2022-10-26T10:02:32;20.10;73.80
19847;DHT22;10084;50.518;8.588;2022-10-26T10:04:58;20.10;73.70
19847;DHT22;10084;50.518;8.588;2022-10-26T10:07:24;20.20;73.70
19847;DHT22;10084;50.518;8.588;2022-10-26T10:10:06;20.20;73.50
19847;DHT22;10084;50.518;8.588;2022-10-26T10:12:32;20.20;73.60
19847;DHT22;10084;50.518;8.588;2022-10-26T10:14:58;20.20;73.60
19847;DHT22;10084;50.518;8.588;2022-10-26T10:17:24;20.30;73.70
19847;DHT22;10084;50.518;8.588;2022-10-26T10:19:51;20.30;73.60
19847;DHT22;10084;50.518;8.588;2022-10-26T10:22:24;20.40;73.60
19847;DHT22;10084;50.518;8.588;2022-10-26T10:24:55;20.50;73.50
19847;DHT22;10084;50.518;8.588;2022-10-26T10:27:21;20.50;73.40
19847;DHT22;10084;50.518;8.588;2022-10-26T10:29:55;20.50;73.40
19847;DHT22;10084;50.518;8.588;2022-10-26T10:32:24;20.50;73.30
19847;DHT22;10084;50.518;8.588;2022-10-26T10:34:56;20.60;73.20
19847;DHT22;10084;50.518;8.588;2022-10-26T10:37:29;20.60;73.20
19847;DHT22;10084;50.518;8.588;2022-10-26T10:40:00;20.60;73.10
19847;DHT22;10084;50.518;8.588;2022-10-26T10:42:30;20.50;72.90
19847;DHT22;10084;50.518;8.588;2022-10-26T10:44:57;20.50;72.90
19847;DHT22;10084;50.518;8.588;2022-10-26T10:47:31;20.50;72.80
19847;DHT22;10084;50.518;8.588;2022-10-26T10:50:21;20.40;72.70
19847;DHT22;10084;50.518;8.588;2022-10-26T10:52:46;20.30;72.70
19847;DHT22;10084;50.518;8.588;2022-10-26T10:57:49;20.10;72.70
19847;DHT22;10084;50.518;8.588;2022-10-26T11:00:18;20.10;72.80
19847;DHT22;10084;50.518;8.588;2022-10-26T11:03:17;20.00;72.70
19847;DHT22;10084;50.518;8.588;2022-10-26T11:09:01;19.90;72.80
19847;DHT22;10084;50.518;8.588;2022-10-26T11:11:36;19.80;72.80
19847;DHT22;10084;50.518;8.588;2022-10-26T11:14:09;19.80;72.90
19847;DHT22;10084;50.518;8.588;2022-10-26T11:16:39;19.70;72.80
19847;DHT22;10084;50.518;8.588;2022-10-26T11:21:49;19.60;72.80
19847;DHT22;10084;50.518;8.588;2022-10-26T11:27:14;19.60;72.90
19847;DHT22;10084;50.518;8.588;2022-10-26T11:29:48;19.50;73.00
19847;DHT22;10084;50.518;8.588;2022-10-26T11:32:34;19.60;73.10
19847;DHT22;10084;50.518;8.588;2022-10-26T11:35:18;19.60;73.30
19847;DHT22;10084;50.518;8.588;2022-10-26T11:38:03;19.80;73.60
19847;DHT22;10084;50.518;8.588;2022-10-26T11:41:00;19.90;73.70
19847;DHT22;10084;50.518;8.588;2022-10-26T11:43:42;20.10;74.50
19847;DHT22;10084;50.518;8.588;2022-10-26T11:46:29;20.30;73.90
19847;DHT22;10084;50.518;8.588;2022-10-26T11:49:03;20.50;73.90
19847;DHT22;10084;50.518;8.588;2022-10-26T11:51:43;20.80;73.90
19847;DHT22;10084;50.518;8.588;2022-10-26T11:54:16;21.00;73.70
19847;DHT22;10084;50.518;8.588;2022-10-26T11:56:47;21.30;73.50
19847;DHT22;10084;50.518;8.588;2022-10-26T11:59:19;21.50;73.40
19847;DHT22;10084;50.518;8.588;2022-10-26T12:01:49;21.70;73.10
19847;DHT22;10084;50.518;8.588;2022-10-26T12:04:17;21.80;72.90
19847;DHT22;10084;50.518;8.588;2022-10-26T12:06:44;22.00;73.40
19847;DHT22;10084;50.518;8.588;2022-10-26T12:09:19;22.10;72.60
19847;DHT22;10084;50.518;8.588;2022-10-26T12:11:59;22.30;72.40
19847;DHT22;10084;50.518;8.588;2022-10-26T12:17:29;22.60;72.00
19847;DHT22;10084;50.518;8.588;2022-10-26T12:22:48;22.90;71.60
19847;DHT22;10084;50.518;8.588;2022-10-26T12:37:59;22.80;70.10
19847;DHT22;10084;50.518;8.588;2022-10-26T12:48:45;22.60;70.00
19847;DHT22;10084;50.518;8.588;2022-10-26T12:56:28;22.90;69.90
19847;DHT22;10084;50.518;8.588;2022-10-26T13:02:00;23.10;69.50
19847;DHT22;10084;50.518;8.588;2022-10-26T13:07:23;23.30;69.20
19847;DHT22;10084;50.518;8.588;2022-10-26T13:12:54;23.20;68.50
19847;DHT22;10084;50.518;8.588;2022-10-26T13:15:28;23.20;68.50
19847;DHT22;10084;50.518;8.588;2022-10-26T13:18:18;23.10;68.40
19847;DHT22;10084;50.518;8.588;2022-10-26T13:23:36;23.10;68.40
19847;DHT22;10084;50.518;8.588;2022-10-26T13:26:15;23.10;68.30
19847;DHT22;10084;50.518;8.588;2022-10-26T13:28:47;23.20;68.30
19847;DHT22;10084;50.518;8.588;2022-10-26T13:33:50;23.30;67.90
19847;DHT22;10084;50.518;8.588;2022-10-26T13:36:28;23.30;67.70
19847;DHT22;10084;50.518;8.588;2022-10-26T13:38:57;23.30;67.50
19847;DHT22;10084;50.518;8.588;2022-10-26T13:41:31;23.40;67.40
19847;DHT22;10084;50.518;8.588;2022-10-26T13:43:58;23.40;67.20
19847;DHT22;10084;50.518;8.588;2022-10-26T13:46:28;23.40;67.10
19847;DHT22;10084;50.518;8.588;2022-10-26T13:49:00;23.40;67.00
19847;DHT22;10084;50.518;8.588;2022-10-26T13:51:42;23.40;66.80
19847;DHT22;10084;50.518;8.588;2022-10-26T13:54:28;23.30;66.60
19847;DHT22;10084;50.518;8.588;2022-10-26T13:57:00;23.30;66.50
19847;DHT22;10084;50.518;8.588;2022-10-26T13:59:29;23.30;66.50
19847;DHT22;10084;50.518;8.588;2022-10-26T14:02:17;23.30;66.30
19847;DHT22;10084;50.518;8.588;2022-10-26T14:04:51;23.20;66.20
19847;DHT22;10084;50.518;8.588;2022-10-26T14:07:20;23.10;66.20
19847;DHT22;10084;50.518;8.588;2022-10-26T14:09:52;23.00;66.10
19847;DHT22;10084;50.518;8.588;2022-10-26T14:12:18;22.90;66.10
19847;DHT22;10084;50.518;8.588;2022-10-26T14:14:43;22.90;66.90
19847;DHT22;10084;50.518;8.588;2022-10-26T14:17:21;22.80;66.10
19847;DHT22;10084;50.518;8.588;2022-10-26T14:19:49;22.70;66.00
19847;DHT22;10084;50.518;8.588;2022-10-26T14:22:20;22.70;66.00
19847;DHT22;10084;50.518;8.588;2022-10-26T14:24:53;22.60;66.00
19847;DHT22;10084;50.518;8.588;2022-10-26T14:27:22;22.50;65.90
19847;DHT22;10084;50.518;8.588;2022-10-26T14:29:49;22.50;65.90
19847;DHT22;10084;50.518;8.588;2022-10-26T14:32:29;22.40;65.90
19847;DHT22;10084;50.518;8.588;2022-10-26T14:34:56;22.30;65.80
19847;DHT22;10084;50.518;8.588;2022-10-26T14:40:17;22.30;65.80
19847;DHT22;10084;50.518;8.588;2022-10-26T14:42:44;22.20;65.70
19847;DHT22;10084;50.518;8.588;2022-10-26T14:45:34;22.20;65.70
19847;DHT22;10084;50.518;8.588;2022-10-26T14:48:02;22.20;65.70
19847;DHT22;10084;50.518;8.588;2022-10-26T14:50:28;22.10;65.60
19847;DHT22;10084;50.518;8.588;2022-10-26T14:53:15;22.00;65.60
19847;DHT22;10084;50.518;8.588;2022-10-26T14:55:50;22.00;65.60
19847;DHT22;10084;50.518;8.588;2022-10-26T14:58:21;21.90;65.60
19847;DHT22;10084;50.518;8.588;2022-10-26T15:03:55;21.80;65.60
19847;DHT22;10084;50.518;8.588;2022-10-26T15:08:58;21.70;65.70
19847;DHT22;10084;50.518;8.588;2022-10-26T15:11:25;21.70;65.70
19847;DHT22;10084;50.518;8.588;2022-10-26T15:13:51;21.60;65.70
19847;DHT22;10084;50.518;8.588;2022-10-26T15:16:19;21.60;65.70
19847;DHT22;10084;50.518;8.588;2022-10-26T15:18:47;21.60;65.70
19847;DHT22;10084;50.518;8.588;2022-10-26T15:21:22;21.60;65.80
19847;DHT22;10084;50.518;8.588;2022-10-26T15:23:49;21.50;65.70
19847;DHT22;10084;50.518;8.588;2022-10-26T15:26:16;21.50;65.70
19847;DHT22;10084;50.518;8.588;2022-10-26T15:28:42;21.40;65.70
19847;DHT22;10084;50.518;8.588;2022-10-26T15:33:38;21.10;66.00
19847;DHT22;10084;50.518;8.588;2022-10-26T15:36:16;20.90;66.20
19847;DHT22;10084;50.518;8.588;2022-10-26T15:38:42;20.70;66.30
19847;DHT22;10084;50.518;8.588;2022-10-26T15:41:25;20.60;66.50
19847;DHT22;10084;50.518;8.588;2022-10-26T15:43:53;20.50;66.70
19847;DHT22;10084;50.518;8.588;2022-10-26T15:46:24;20.40;66.80
19847;DHT22;10084;50.518;8.588;2022-10-26T15:48:55;20.30;67.00
19847;DHT22;10084;50.518;8.588;2022-10-26T15:51:21;20.20;67.10
19847;DHT22;10084;50.518;8.588;2022-10-26T15:53:46;20.10;67.20
19847;DHT22;10084;50.518;8.588;2022-10-26T15:56:21;20.00;67.30
19847;DHT22;10084;50.518;8.588;2022-10-26T15:58:51;19.90;67.30
19847;DHT22;10084;50.518;8.588;2022-10-26T16:01:25;19.90;67.50
19847;DHT22;10084;50.518;8.588;2022-10-26T16:03:51;19.80;67.50
19847;DHT22;10084;50.518;8.588;2022-10-26T16:06:29;19.70;67.60
19847;DHT22;10084;50.518;8.588;2022-10-26T16:08:57;19.60;67.70
19847;DHT22;10084;50.518;8.588;2022-10-26T16:11:23;19.50;67.90
19847;DHT22;10084;50.518;8.588;2022-10-26T16:13:49;19.40;68.00
19847;DHT22;10084;50.518;8.588;2022-10-26T16:16:17;19.30;68.30
19847;DHT22;10084;50.518;8.588;2022-10-26T16:18:44;19.20;69.00
19847;DHT22;10084;50.518;8.588;2022-10-26T16:21:12;19.10;68.40
19847;DHT22;10084;50.518;8.588;2022-10-26T16:23:38;19.00;68.60
19847;DHT22;10084;50.518;8.588;2022-10-26T16:26:04;18.90;68.70
19847;DHT22;10084;50.518;8.588;2022-10-26T16:28:30;18.90;68.80
19847;DHT22;10084;50.518;8.588;2022-10-26T16:31:00;18.80;68.90
19847;DHT22;10084;50.518;8.588;2022-10-26T16:33:26;18.70;69.60
19847;DHT22;10084;50.518;8.588;2022-10-26T16:35:58;18.60;69.10
19847;DHT22;10084;50.518;8.588;2022-10-26T16:38:25;18.50;69.90
19847;DHT22;10084;50.518;8.588;2022-10-26T16:41:11;18.40;70.00
19847;DHT22;10084;50.518;8.588;2022-10-26T16:43:39;18.30;69.40
19847;DHT22;10084;50.518;8.588;2022-10-26T16:46:14;18.30;69.50
19847;DHT22;10084;50.518;8.588;2022-10-26T16:48:42;18.20;69.70
19847;DHT22;10084;50.518;8.588;2022-10-26T16:51:13;18.10;69.70
19847;DHT22;10084;50.518;8.588;2022-10-26T16:53:40;18.00;69.80
19847;DHT22;10084;50.518;8.588;2022-10-26T16:56:11;18.00;69.90
19847;DHT22;10084;50.518;8.588;2022-10-26T16:58:37;17.90;70.00
19847;DHT22;10084;50.518;8.588;2022-10-26T17:01:05;17.80;70.10
19847;DHT22;10084;50.518;8.588;2022-10-26T17:03:31;17.70;70.20
19847;DHT22;10084;50.518;8.588;2022-10-26T17:05:58;17.60;70.20
19847;DHT22;10084;50.518;8.588;2022-10-26T17:08:26;17.50;70.30
19847;DHT22;10084;50.518;8.588;2022-10-26T17:10:53;17.50;70.50
19847;DHT22;10084;50.518;8.588;2022-10-26T17:13:20;17.40;70.50
19847;DHT22;10084;50.518;8.588;2022-10-26T17:15:46;17.40;70.60
19847;DHT22;10084;50.518;8.588;2022-10-26T17:18:12;17.30;70.60
19847;DHT22;10084;50.518;8.588;2022-10-26T17:20:39;17.20;70.70
19847;DHT22;10084;50.518;8.588;2022-10-26T17:23:05;17.20;70.80
19847;DHT22;10084;50.518;8.588;2022-10-26T17:25:34;17.10;70.80
19847;DHT22;10084;50.518;8.588;2022-10-26T17:28:02;17.10;70.90
19847;DHT22;10084;50.518;8.588;2022-10-26T17:30:28;17.00;71.00
19847;DHT22;10084;50.518;8.588;2022-10-26T17:32:54;16.90;71.10
19847;DHT22;10084;50.518;8.588;2022-10-26T17:35:22;16.90;71.20
19847;DHT22;10084;50.518;8.588;2022-10-26T17:37:48;16.80;71.20